createdAt,value
2022-11-05T00:00:18.405Z,86.21
2022-11-05T00:03:03.312Z,86.29
2022-11-05T00:05:48.237Z,86.29
2022-11-05T00:08:33.285Z,86.34
2022-11-05T00:10:59.733Z,86.95
2022-11-05T00:13:44.925Z,86.53
2022-11-05T00:16:40.279Z,86.98
2022-11-05T00:19:06.848Z,86.63
2022-11-05T00:21:52.950Z,87.00
2022-11-05T00:24:38.152Z,86.98
2022-11-05T00:27:04.672Z,87.55
2022-11-05T00:29:31.148Z,87.74
2022-11-05T00:31:57.560Z,87.72
2022-11-05T00:34:24.000Z,88.14
2022-11-05T00:36:50.457Z,88.11
2022-11-05T00:39:16.906Z,87.75
2022-11-05T00:41:43.378Z,87.94
2022-11-05T00:44:28.488Z,88.31
2022-11-05T00:47:14.859Z,88.10
2022-11-05T00:49:41.276Z,88.31
2022-11-05T00:52:26.184Z,88.02
2022-11-05T00:54:52.607Z,88.15
2022-11-05T00:57:18.992Z,87.72
2022-11-05T00:59:45.392Z,87.74
2022-11-05T01:02:11.887Z,87.60
2022-11-05T01:04:38.418Z,87.82
2022-11-05T01:07:04.820Z,87.63
2022-11-05T01:09:31.242Z,87.66
2022-11-05T01:11:57.693Z,87.75
2022-11-05T01:14:24.193Z,87.96
2022-11-05T01:16:50.593Z,87.97
2022-11-05T01:19:17.050Z,87.74
2022-11-05T01:21:43.439Z,87.72
2022-11-05T01:24:10.710Z,88.08
2022-11-05T01:26:37.122Z,87.53
2022-11-05T01:29:03.666Z,87.98
2022-11-05T01:31:30.127Z,87.90
2022-11-05T01:33:56.549Z,88.30
2022-11-05T01:36:22.959Z,88.08
2022-11-05T01:38:49.418Z,87.99
2022-11-05T01:41:15.819Z,88.15
2022-11-05T01:43:54.512Z,88.25
2022-11-05T01:46:24.479Z,88.12
2022-11-05T01:48:52.770Z,88.19
2022-11-05T01:51:23.016Z,88.24
2022-11-05T01:53:52.985Z,88.37
2022-11-05T01:56:41.387Z,88.34
2022-11-05T01:59:17.167Z,88.66
2022-11-05T02:01:44.999Z,89.34
2022-11-05T02:04:15.754Z,89.56
2022-11-05T02:06:46.060Z,89.72
2022-11-05T02:09:20.742Z,89.48
2022-11-05T02:11:47.571Z,89.65
2022-11-05T02:14:13.994Z,89.73
2022-11-05T02:16:58.718Z,89.82
2022-11-05T02:19:43.865Z,90.01
2022-11-05T02:22:43.020Z,90.20
2022-11-05T02:25:15.578Z,90.31
2022-11-05T02:28:19.457Z,90.00
2022-11-05T02:31:10.074Z,90.09
2022-11-05T02:33:58.183Z,90.01
2022-11-05T02:36:39.648Z,89.72
2022-11-05T02:39:30.314Z,89.35
2022-11-05T02:42:38.280Z,89.26
2022-11-05T02:45:37.554Z,89.03
2022-11-05T02:48:06.889Z,89.29
2022-11-05T02:50:55.063Z,88.88
2022-11-05T02:53:40.040Z,89.17
2022-11-05T02:56:22.733Z,89.06
2022-11-05T02:58:49.210Z,89.17
2022-11-05T03:01:15.777Z,89.01
2022-11-05T03:04:09.528Z,88.75
2022-11-05T03:06:51.234Z,89.15
2022-11-05T03:09:36.265Z,89.40
2022-11-05T03:12:14.787Z,89.72
2022-11-05T03:14:52.986Z,89.88
2022-11-05T03:17:34.874Z,90.03
2022-11-05T03:20:19.263Z,90.43
2022-11-05T03:22:51.395Z,90.71
2022-11-05T03:25:20.728Z,90.47
2022-11-05T03:27:50.245Z,90.38
2022-11-05T03:30:18.512Z,90.27
2022-11-05T03:32:51.133Z,89.65
2022-11-05T03:35:20.499Z,89.60
2022-11-05T03:37:49.386Z,89.58
2022-11-05T03:40:16.786Z,88.94
2022-11-05T03:42:46.110Z,88.98
2022-11-05T03:45:19.788Z,88.65
2022-11-05T03:47:47.615Z,88.39
2022-11-05T03:50:26.120Z,88.33
2022-11-05T03:52:54.228Z,88.38
2022-11-05T03:55:27.164Z,87.92
2022-11-05T03:57:55.208Z,87.47
2022-11-05T04:00:22.190Z,87.34
2022-11-05T04:02:48.680Z,86.92
2022-11-05T04:05:15.327Z,87.17
2022-11-05T04:08:01.857Z,87.47
2022-11-05T04:11:06.714Z,88.18
2022-11-05T04:13:33.348Z,88.79
2022-11-05T04:16:18.181Z,89.43
2022-11-05T04:18:44.620Z,89.73
2022-11-05T04:21:29.563Z,90.02
2022-11-05T04:24:08.568Z,90.46
2022-11-05T04:26:40.388Z,90.73
2022-11-05T04:29:26.058Z,90.87
2022-11-05T04:31:52.779Z,90.92
2022-11-05T04:34:19.418Z,91.07
2022-11-05T04:36:46.293Z,91.42
2022-11-05T04:39:12.701Z,91.24
2022-11-05T04:41:39.118Z,91.61
2022-11-05T04:44:05.595Z,92.07
2022-11-05T04:46:32.029Z,91.88
2022-11-05T04:48:58.447Z,91.71
2022-11-05T04:51:24.927Z,91.94
2022-11-05T04:53:51.333Z,91.71
2022-11-05T04:56:22.695Z,91.67
2022-11-05T04:58:49.157Z,91.82
2022-11-05T05:01:20.794Z,91.77
2022-11-05T05:03:48.613Z,91.62
2022-11-05T05:06:15.207Z,91.58
2022-11-05T05:08:41.804Z,91.93
2022-11-05T05:11:11.444Z,91.92
2022-11-05T05:13:37.869Z,91.96
2022-11-05T05:16:24.136Z,92.33
2022-11-05T05:18:51.394Z,92.18
2022-11-05T05:21:37.883Z,92.32
2022-11-05T05:24:09.206Z,92.21
2022-11-05T05:26:36.847Z,92.02
2022-11-05T05:29:04.240Z,91.99
2022-11-05T05:31:30.892Z,92.12
2022-11-05T05:33:57.421Z,91.98
2022-11-05T05:36:24.215Z,92.51
2022-11-05T05:38:50.629Z,92.39
2022-11-05T05:41:17.156Z,92.27
2022-11-05T05:43:43.800Z,91.92
2022-11-05T05:46:12.670Z,92.21
2022-11-05T05:48:39.230Z,91.89
2022-11-05T05:51:10.701Z,91.94
2022-11-05T05:53:37.495Z,92.15
2022-11-05T05:56:04.854Z,92.19
2022-11-05T05:58:37.480Z,92.31
2022-11-05T06:01:06.764Z,92.46
2022-11-05T06:03:33.565Z,92.33
2022-11-05T06:06:03.813Z,92.47
2022-11-05T06:08:31.053Z,92.41
2022-11-05T06:10:57.850Z,92.35
2022-11-05T06:13:24.557Z,92.14
2022-11-05T06:15:50.961Z,92.42
2022-11-05T06:18:17.383Z,92.29
2022-11-05T06:20:43.863Z,92.57
2022-11-05T06:23:10.459Z,92.37
2022-11-05T06:25:41.074Z,92.52
2022-11-05T06:28:07.881Z,92.63
2022-11-05T06:30:34.317Z,92.48
2022-11-05T06:33:06.844Z,92.92
2022-11-05T06:35:33.359Z,92.81
2022-11-05T06:38:02.869Z,93.16
2022-11-05T06:40:29.564Z,92.78
2022-11-05T06:42:55.979Z,92.88
2022-11-05T06:45:22.575Z,92.70
2022-11-05T06:47:54.956Z,92.62
2022-11-05T06:50:21.353Z,92.83
2022-11-05T06:53:04.195Z,92.68
2022-11-05T06:55:31.216Z,92.51
2022-11-05T06:57:58.049Z,92.63
2022-11-05T07:00:24.977Z,92.79
2022-11-05T07:02:51.414Z,92.54
2022-11-05T07:05:18.118Z,92.77
2022-11-05T07:07:45.118Z,92.68
2022-11-05T07:10:16.950Z,92.65
2022-11-05T07:12:43.724Z,92.76
2022-11-05T07:15:11.604Z,92.65
2022-11-05T07:17:38.743Z,92.74
2022-11-05T07:20:06.916Z,93.04
2022-11-05T07:22:34.791Z,92.54
2022-11-05T07:25:01.211Z,92.80
2022-11-05T07:27:27.756Z,92.82
2022-11-05T07:29:54.188Z,93.29
2022-11-05T07:32:20.642Z,93.86
2022-11-05T07:34:47.248Z,93.97
2022-11-05T07:37:16.599Z,93.74
2022-11-05T07:39:43.114Z,93.86
2022-11-05T07:42:13.260Z,93.78
2022-11-05T07:44:39.687Z,93.75
2022-11-05T07:47:06.097Z,93.66
2022-11-05T07:49:32.484Z,93.47
2022-11-05T07:51:58.975Z,93.73
2022-11-05T07:54:26.588Z,94.12
2022-11-05T07:56:53.104Z,94.03
2022-11-05T07:59:19.673Z,93.83
2022-11-05T08:01:46.269Z,93.94
2022-11-05T08:04:12.802Z,94.24
2022-11-05T08:06:39.208Z,94.38
2022-11-05T08:09:05.743Z,93.95
2022-11-05T08:11:32.231Z,94.16
2022-11-05T08:13:58.649Z,93.95
2022-11-05T08:16:25.108Z,93.90
2022-11-05T08:18:51.487Z,94.15
2022-11-05T08:21:18.021Z,94.37
2022-11-05T08:23:45.181Z,93.87
2022-11-05T08:26:11.639Z,94.09
2022-11-05T08:28:38.042Z,93.94
2022-11-05T08:31:04.533Z,93.88
2022-11-05T08:33:31.387Z,93.89
2022-11-05T08:36:01.844Z,93.71
2022-11-05T08:38:28.285Z,93.27
2022-11-05T08:40:57.526Z,93.33
2022-11-05T08:43:24.281Z,92.65
2022-11-05T08:45:50.784Z,92.77
2022-11-05T08:48:18.356Z,92.28
2022-11-05T08:50:46.826Z,92.41
2022-11-05T08:53:13.628Z,92.46
2022-11-05T08:55:40.726Z,92.15
2022-11-05T08:58:12.481Z,91.49
2022-11-05T09:00:39.823Z,89.87
2022-11-05T09:03:08.147Z,90.46
2022-11-05T09:05:37.985Z,89.82
2022-11-05T09:08:09.851Z,89.61
2022-11-05T09:10:37.037Z,89.41
2022-11-05T09:13:04.416Z,89.98
2022-11-05T09:15:31.662Z,89.05
2022-11-05T09:17:58.099Z,88.92
2022-11-05T09:20:24.636Z,88.37
2022-11-05T09:22:51.562Z,87.90
2022-11-05T09:25:18.057Z,88.48
2022-11-05T09:27:44.601Z,87.37
2022-11-05T09:30:12.445Z,87.13
2022-11-05T09:32:38.851Z,86.89
2022-11-05T09:35:05.781Z,86.23
2022-11-05T09:37:32.475Z,85.76
2022-11-05T09:39:58.944Z,85.12
2022-11-05T09:42:31.395Z,84.60
2022-11-05T09:45:21.408Z,84.59
2022-11-05T09:48:00.684Z,84.06
2022-11-05T09:50:37.116Z,84.32
2022-11-05T09:53:04.000Z,83.69
2022-11-05T09:55:36.782Z,83.88
2022-11-05T09:58:09.704Z,83.97
2022-11-05T10:00:36.205Z,83.71
2022-11-05T10:03:14.244Z,84.04
2022-11-05T10:05:41.182Z,83.87
2022-11-05T10:08:18.268Z,83.69
2022-11-05T10:10:50.187Z,83.55
2022-11-05T10:13:25.179Z,82.49
2022-11-05T10:15:57.673Z,82.18
2022-11-05T10:18:31.974Z,82.26
2022-11-05T10:20:58.811Z,82.23
2022-11-05T10:23:26.526Z,82.53
2022-11-05T10:26:05.936Z,82.85
2022-11-05T10:28:33.581Z,82.08
2022-11-05T10:31:03.231Z,81.85
2022-11-05T10:33:36.020Z,80.39
2022-11-05T10:36:05.702Z,80.36
2022-11-05T10:38:32.655Z,79.04
2022-11-05T10:41:20.253Z,79.95
2022-11-05T10:43:51.973Z,78.75
2022-11-05T10:46:40.230Z,78.87
2022-11-05T10:49:38.976Z,78.56
2022-11-05T10:52:35.537Z,78.61
2022-11-05T10:55:05.262Z,78.65
2022-11-05T10:57:37.512Z,78.60
2022-11-05T11:00:19.142Z,79.13
2022-11-05T11:02:55.884Z,79.63
2022-11-05T11:05:26.718Z,77.59
2022-11-05T11:07:59.759Z,76.79
2022-11-05T11:10:26.879Z,77.37
2022-11-05T11:12:53.911Z,77.49
2022-11-05T11:15:20.337Z,76.88
2022-11-05T11:17:47.361Z,77.24
2022-11-05T11:20:29.842Z,77.66
2022-11-05T11:22:59.249Z,77.43
2022-11-05T11:25:27.892Z,76.79
2022-11-05T11:27:54.654Z,75.99
2022-11-05T11:30:21.780Z,76.19
2022-11-05T11:32:49.499Z,76.32
2022-11-05T11:35:23.048Z,75.92
2022-11-05T11:37:52.323Z,76.05
2022-11-05T11:40:49.620Z,74.44
2022-11-05T11:43:43.685Z,73.83
2022-11-05T11:46:20.108Z,74.86
2022-11-05T11:48:48.237Z,74.30
2022-11-05T11:51:35.107Z,73.73
2022-11-05T11:54:02.150Z,73.89
2022-11-05T11:56:30.277Z,73.53
2022-11-05T11:59:13.044Z,73.92
2022-11-05T12:02:17.046Z,73.87
2022-11-05T12:04:53.944Z,73.71
2022-11-05T12:07:35.292Z,74.16
2022-11-05T12:10:30.692Z,74.11
2022-11-05T12:13:18.475Z,73.45
2022-11-05T12:15:55.132Z,73.00
2022-11-05T12:18:46.560Z,73.10
2022-11-05T12:21:52.210Z,73.48
2022-11-05T12:24:26.313Z,74.07
2022-11-05T12:27:02.977Z,74.52
2022-11-05T12:29:54.226Z,74.87
2022-11-05T12:32:51.593Z,74.70
2022-11-05T12:35:29.111Z,73.92
2022-11-05T12:38:05.236Z,73.45
2022-11-05T12:40:49.944Z,73.90
2022-11-05T12:43:34.503Z,74.04
2022-11-05T12:46:19.142Z,73.68
2022-11-05T12:49:03.214Z,73.65
2022-11-05T12:51:53.442Z,74.61
2022-11-05T12:54:49.097Z,73.71
2022-11-05T13:00:02.303Z,72.55
2022-11-05T13:02:34.503Z,72.96
2022-11-05T13:05:04.007Z,73.24
2022-11-05T13:07:34.365Z,72.08
2022-11-05T13:10:28.337Z,70.62
2022-11-05T13:13:13.679Z,70.66
2022-11-05T13:15:48.051Z,68.88
2022-11-05T13:18:19.067Z,68.99
2022-11-05T13:20:50.160Z,69.03
2022-11-05T13:23:26.022Z,69.13
2022-11-05T13:26:19.511Z,69.34
2022-11-05T13:28:52.361Z,70.07
2022-11-05T13:31:21.817Z,69.51
2022-11-05T13:33:49.685Z,69.45
2022-11-05T13:37:16.755Z,69.06
2022-11-05T13:39:45.792Z,69.37
2022-11-05T13:42:46.072Z,68.70
2022-11-05T13:45:37.417Z,68.91
2022-11-05T13:48:34.665Z,69.78
2022-11-05T13:51:28.378Z,70.19
2022-11-05T13:54:33.670Z,70.00
2022-11-05T13:57:34.387Z,70.14
2022-11-05T14:00:19.398Z,70.63
2022-11-05T14:02:51.122Z,70.62
2022-11-05T14:05:30.824Z,70.51
2022-11-05T14:07:59.521Z,70.32
2022-11-05T14:10:30.743Z,70.09
2022-11-05T14:12:58.889Z,70.09
2022-11-05T14:15:28.114Z,70.02
2022-11-05T14:18:06.115Z,69.90
2022-11-05T14:20:32.441Z,69.62
2022-11-05T14:23:17.297Z,69.74
2022-11-05T14:25:43.753Z,69.81
2022-11-05T14:28:35.018Z,69.47
2022-11-05T14:31:19.637Z,69.55
2022-11-05T14:33:59.700Z,69.17
2022-11-05T14:36:28.079Z,69.03
2022-11-05T14:39:01.416Z,68.91
2022-11-05T14:41:30.468Z,68.44
2022-11-05T14:44:04.909Z,68.38
2022-11-05T14:46:47.141Z,68.66
2022-11-05T14:49:26.117Z,68.22
2022-11-05T14:51:55.841Z,68.27
2022-11-05T14:54:42.296Z,68.07
2022-11-05T14:57:13.624Z,68.20
2022-11-05T14:59:57.649Z,68.20
2022-11-05T15:02:27.955Z,68.32
2022-11-05T15:05:33.168Z,68.49
2022-11-05T15:08:00.085Z,69.02
2022-11-05T15:10:30.376Z,69.29
2022-11-05T15:13:03.600Z,69.40
2022-11-05T15:15:42.625Z,69.79
2022-11-05T15:18:15.092Z,69.40
2022-11-05T15:20:42.825Z,69.77
2022-11-05T15:23:21.129Z,69.81
2022-11-05T15:26:13.705Z,70.09
2022-11-05T15:28:43.893Z,69.99
2022-11-05T15:31:13.342Z,70.52
2022-11-05T15:33:40.969Z,70.80
2022-11-05T15:36:24.854Z,71.22
2022-11-05T15:39:15.148Z,71.11
2022-11-05T15:41:38.437Z,71.29
2022-11-05T15:44:04.893Z,71.98
2022-11-05T15:46:31.376Z,71.95
2022-11-05T15:49:01.896Z,72.39
2022-11-05T15:51:29.418Z,73.09
2022-11-05T15:56:51.182Z,73.30
2022-11-05T15:59:22.987Z,73.49
2022-11-05T16:02:03.164Z,73.52
2022-11-05T16:04:32.236Z,73.77
2022-11-05T16:07:01.601Z,74.37
2022-11-05T16:09:30.736Z,73.97
2022-11-05T16:12:19.308Z,74.02
2022-11-05T16:15:04.486Z,73.78
2022-11-05T16:17:45.318Z,73.67
2022-11-05T16:20:32.155Z,73.03
2022-11-05T16:23:00.967Z,72.83
2022-11-05T16:25:40.407Z,72.97
2022-11-05T16:28:20.584Z,73.37
2022-11-05T16:30:57.955Z,73.77
2022-11-05T16:33:27.055Z,73.55
2022-11-05T16:35:53.543Z,74.11
2022-11-05T16:38:20.210Z,74.44
2022-11-05T16:40:46.688Z,74.53
2022-11-05T16:43:21.806Z,74.03
2022-11-05T16:45:48.284Z,74.31
2022-11-05T16:48:15.572Z,74.54
2022-11-05T16:50:42.482Z,75.17
2022-11-05T16:53:08.963Z,75.74
2022-11-05T16:55:37.951Z,76.12
2022-11-05T16:58:04.532Z,76.54
2022-11-05T17:00:31.011Z,77.20
2022-11-05T17:02:57.698Z,77.67
2022-11-05T17:05:31.119Z,77.78
2022-11-05T17:07:57.889Z,78.01
2022-11-05T17:10:25.468Z,78.01
2022-11-05T17:12:52.249Z,78.02
2022-11-05T17:15:22.395Z,77.31
2022-11-05T17:17:48.935Z,77.79
2022-11-05T17:20:38.540Z,77.71
2022-11-05T17:23:06.489Z,78.06
2022-11-05T17:25:33.223Z,78.16
2022-11-05T17:28:00.022Z,77.79
2022-11-05T17:30:26.481Z,78.28
2022-11-05T17:32:53.144Z,77.84
2022-11-05T17:35:20.023Z,77.59
2022-11-05T17:37:46.747Z,76.95
2022-11-05T17:40:16.137Z,76.80
2022-11-05T17:42:42.624Z,76.95
2022-11-05T17:45:10.404Z,76.48
2022-11-05T17:47:37.154Z,76.70
2022-11-05T17:50:04.891Z,76.57
2022-11-05T17:52:31.423Z,76.86
2022-11-05T17:54:57.809Z,76.99
2022-11-05T17:57:24.231Z,76.77
2022-11-05T17:59:50.650Z,76.50
2022-11-05T18:02:17.140Z,76.76
2022-11-05T18:04:43.634Z,76.97
2022-11-05T18:07:10.474Z,76.92
2022-11-05T18:09:37.662Z,76.80
2022-11-05T18:12:04.553Z,76.55
2022-11-05T18:14:31.104Z,76.41
2022-11-05T18:17:00.130Z,76.38
2022-11-05T18:19:27.650Z,76.15
2022-11-05T18:21:54.628Z,76.76
2022-11-05T18:24:21.871Z,76.58
2022-11-05T18:26:48.504Z,77.07
2022-11-05T18:29:15.129Z,77.27
2022-11-05T18:31:41.635Z,77.15
2022-11-05T18:34:10.301Z,77.20
2022-11-05T18:36:36.708Z,77.08
2022-11-05T18:39:04.416Z,77.06
2022-11-05T18:41:31.461Z,77.15
2022-11-05T18:44:01.926Z,77.21
2022-11-05T18:46:56.423Z,77.42
2022-11-05T18:49:16.411Z,77.50
2022-11-05T18:51:42.814Z,77.87
2022-11-05T18:54:09.919Z,77.85
2022-11-05T18:56:37.019Z,78.53
2022-11-05T18:59:34.637Z,77.83
2022-11-05T19:01:50.039Z,77.76
2022-11-05T19:04:17.789Z,77.88
2022-11-05T19:06:44.244Z,77.88
2022-11-05T19:09:12.010Z,77.85
2022-11-05T19:11:39.550Z,77.48
2022-11-05T19:14:06.140Z,77.39
2022-11-05T19:16:32.807Z,77.78
2022-11-05T19:19:01.187Z,77.83
2022-11-05T19:21:28.394Z,77.89
2022-11-05T19:23:57.053Z,77.62
2022-11-05T19:26:28.551Z,77.51
2022-11-05T19:28:58.156Z,77.48
2022-11-05T19:31:24.608Z,77.23
2022-11-05T19:33:51.763Z,77.56
2022-11-05T19:36:20.565Z,77.09
2022-11-05T19:38:49.581Z,77.31
2022-11-05T19:41:21.448Z,77.33
2022-11-05T19:43:47.950Z,77.26
2022-11-05T19:46:16.962Z,76.99
2022-11-05T19:48:44.175Z,77.42
2022-11-05T19:51:15.312Z,78.23
2022-11-05T19:53:42.171Z,78.69
2022-11-05T19:56:12.339Z,78.69
2022-11-05T19:58:38.758Z,79.13
2022-11-05T20:01:05.415Z,78.71
2022-11-05T20:03:31.994Z,78.90
2022-11-05T20:06:03.518Z,79.43
2022-11-05T20:08:30.049Z,79.32
2022-11-05T20:10:56.684Z,79.32
2022-11-05T20:13:23.712Z,79.72
2022-11-05T20:15:50.236Z,79.78
2022-11-05T20:18:16.763Z,80.04
2022-11-05T20:20:44.357Z,80.19
2022-11-05T20:23:11.136Z,80.14
2022-11-05T20:25:37.625Z,80.25
2022-11-05T20:28:04.529Z,80.18
2022-11-05T20:30:31.041Z,80.15
2022-11-05T20:32:57.689Z,79.71
2022-11-05T20:35:24.643Z,79.70
2022-11-05T20:37:53.907Z,80.12
2022-11-05T20:40:20.851Z,79.73
2022-11-05T20:42:47.281Z,79.72
2022-11-05T20:45:13.740Z,79.85
2022-11-05T20:47:40.210Z,79.47
2022-11-05T20:50:07.470Z,79.40
2022-11-05T20:52:33.891Z,79.07
2022-11-05T20:55:01.148Z,78.58
2022-11-05T20:57:27.680Z,78.51
2022-11-05T20:59:54.385Z,78.41
2022-11-05T21:02:20.842Z,78.80
2022-11-05T21:04:47.656Z,79.27
2022-11-05T21:07:14.091Z,79.93
2022-11-05T21:09:40.518Z,79.84
2022-11-05T21:12:12.915Z,79.58
2022-11-05T21:14:41.375Z,80.09
2022-11-05T21:17:09.699Z,80.42
2022-11-05T21:19:36.444Z,81.26
2022-11-05T21:22:04.565Z,81.40
2022-11-05T21:24:32.211Z,82.00
2022-11-05T21:26:58.643Z,81.94
2022-11-05T21:29:25.097Z,82.21
2022-11-05T21:31:51.709Z,82.58
2022-11-05T21:34:18.973Z,83.08
2022-11-05T21:36:45.789Z,83.29
2022-11-05T21:39:13.744Z,83.37
2022-11-05T21:41:40.487Z,83.82
2022-11-05T21:44:06.918Z,83.81
2022-11-05T21:46:33.392Z,83.92
2022-11-05T21:48:59.817Z,84.19
2022-11-05T21:51:44.981Z,84.63
2022-11-05T21:54:29.949Z,84.83
2022-11-05T21:57:14.963Z,84.90
2022-11-05T22:00:07.737Z,85.09
2022-11-05T22:02:34.386Z,85.21
2022-11-05T22:05:02.188Z,85.40
2022-11-05T22:07:34.647Z,85.36
2022-11-05T22:10:01.525Z,85.49
2022-11-05T22:12:28.664Z,85.85
2022-11-05T22:14:55.101Z,85.48
2022-11-05T22:17:21.570Z,85.77
2022-11-05T22:19:47.975Z,85.89
2022-11-05T22:22:14.385Z,85.93
2022-11-05T22:24:41.207Z,86.15
2022-11-05T22:27:11.357Z,86.15
2022-11-05T22:29:37.788Z,86.08
2022-11-05T22:32:05.055Z,86.16
2022-11-05T22:34:31.793Z,85.94
2022-11-05T22:36:58.712Z,85.84
2022-11-05T22:39:25.388Z,85.94
2022-11-05T22:41:56.352Z,86.10
2022-11-05T22:44:23.264Z,86.19
2022-11-05T22:46:49.809Z,85.94
2022-11-05T22:49:16.358Z,85.99
2022-11-05T22:51:42.951Z,86.29
2022-11-05T22:54:09.658Z,86.58
2022-11-05T22:56:40.804Z,86.33
2022-11-05T22:59:10.268Z,86.46
2022-11-05T23:01:36.920Z,86.55
2022-11-05T23:04:03.824Z,86.40
2022-11-05T23:06:50.482Z,86.39
2022-11-05T23:09:47.712Z,86.36
2022-11-05T23:12:31.842Z,86.44
2022-11-05T23:14:59.247Z,86.70
2022-11-05T23:17:45.068Z,86.76
2022-11-05T23:20:15.202Z,86.58
2022-11-05T23:23:00.228Z,86.93
2022-11-05T23:25:26.701Z,86.74
2022-11-05T23:27:53.982Z,86.87
2022-11-05T23:30:25.945Z,86.79
2022-11-05T23:32:53.485Z,86.82
2022-11-05T23:35:40.003Z,87.01
2022-11-05T23:38:25.233Z,87.11
2022-11-05T23:41:10.327Z,87.18
2022-11-05T23:43:55.434Z,87.01
2022-11-05T23:46:40.501Z,87.15
2022-11-05T23:49:06.983Z,87.16
2022-11-05T23:51:33.543Z,87.27
2022-11-05T23:53:59.990Z,87.13
2022-11-05T23:56:26.444Z,87.12
2022-11-05T23:58:52.913Z,87.01
